Flight Track Log - Related Links

Times and Time Zones

All times are in EDT time to prevent confusion due to time zone crossing. See the CPA881 flight status page for this flight to view local times or setup timezone preferences in your user account.

Time Position Orientation Groundspeed Altitude Reporting Facility
EDT Latitude Longitude Course Direction KTS MPH feet Rate Location/Type
Wed 04:51:41 AM 33.9333 -118.4500 260° West 232 267 1,700  Level Southern California TRACON
Wed 04:52:55 AM 33.9197 -118.5419 260° West 243 280 3,500 1,657 Climbing Los Angeles Center
Wed 04:53:55 AM 33.9075 -118.6292 263° West 277 319 5,400 2,150 Climbing Los Angeles Center
Wed 04:54:55 AM 33.8969 -118.7264 262° West 288 331 7,800 2,250 Climbing Los Angeles Center
Wed 04:55:55 AM 33.8844 -118.8286 292° West 304 350 9,900 1,700 Climbing Los Angeles Center
Wed 04:56:55 AM 33.9175 -118.9272 325° Northwest 309 356 11,200 1,450 Climbing Los Angeles Center
Wed 04:57:55 AM 34.0036 -119.0003 330° Northwest 323 372 12,800 2,050 Climbing Los Angeles Center
Wed 04:58:55 AM 34.1083 -119.0742 328° Northwest 364 419 15,300 2,500 Climbing Los Angeles Center
Wed 04:59:55 AM 34.2025 -119.1453 329° Northwest 384 442 17,800 2,200 Climbing Los Angeles Center
Wed 05:00:55 AM 34.2989 -119.2142 329° Northwest 395 455 19,700 1,900 Climbing Los Angeles Center
Wed 05:01:55 AM 34.3992 -119.2858 330° Northwest 402 463 21,600 5,150 Climbing Los Angeles Center
Wed 05:02:55 AM 34.4997 -119.3575 331° Northwest 412 474 30,000 1,600 Climbing Los Angeles Center
Wed 05:03:55 AM 34.6061 -119.4300 333° Northwest 423 487 24,800 -2,000 Descending Los Angeles Center
Wed 05:04:55 AM 34.7047 -119.4919 328° Northwest 433 498 26,000 1,200 Climbing Los Angeles Center
Wed 05:05:55 AM 34.8111 -119.5722 331° Northwest 438 504 27,200 1,200 Climbing Los Angeles Center
Wed 05:06:55 AM 34.9214 -119.6478 329° Northwest 443 510 28,400 1,200 Climbing Los Angeles Center
Wed 05:07:55 AM 35.0339 -119.7311 329° Northwest 453 521 29,600 800 Climbing Los Angeles Center
Wed 05:08:55 AM 35.1442 -119.8122 329° Northwest 458 527 30,000 131 Climbing Los Angeles Center
Wed 05:10:58 AM 35.3722 -119.9806 329° Northwest 460 529 30,000  Level Oakland Center
Wed 05:11:58 AM 35.4961 -120.0708 329° Northwest 460 529 30,000  Level Oakland Center
Wed 05:12:58 AM 35.6072 -120.1539 327° Northwest 465 535 30,000  Level Oakland Center
Wed 05:13:58 AM 35.7164 -120.2397 329° Northwest 465 535 30,000  Level Oakland Center
Wed 05:14:58 AM 35.8272 -120.3206 329° Northwest 465 535 30,000  Level Oakland Center
Wed 05:15:58 AM 35.9383 -120.4042 329° Northwest 465 535 30,000  Level Oakland Center
Wed 05:16:58 AM 36.0472 -120.4856 329° Northwest 465 535 30,000  Level Oakland Center
Wed 05:17:58 AM 36.1622 -120.5722 328° Northwest 465 535 30,000  Level Oakland Center
Wed 05:18:58 AM 36.2708 -120.6567 328° Northwest 465 535 30,000  Level Oakland Center
Wed 05:19:58 AM 36.3817 -120.7414 329° Northwest 465 535 30,000  Level Oakland Center
Wed 05:20:58 AM 36.4944 -120.8264 329° Northwest 470 541 30,000  Level Oakland Center
Wed 05:21:58 AM 36.6050 -120.9089 328° Northwest 470 541 30,000  Level Oakland Center
Wed 05:22:58 AM 36.7158 -120.9969 329° Northwest 470 541 30,000  Level Oakland Center
Wed 05:23:58 AM 36.8033 -121.0617 328° Northwest 470 541 30,000  Level Oakland Center
Wed 05:24:59 AM 36.9200 -121.1528 329° Northwest 461 531 30,000  Level Oakland Center
Wed 05:25:58 AM 37.0325 -121.2364 329° Northwest 467 537 30,000  Level Oakland Center
Wed 05:26:58 AM 37.1533 -121.3278 328° Northwest 467 537 30,000  Level Oakland Center
Wed 05:27:58 AM 37.2636 -121.4144 327° Northwest 467 537 30,000  Level Oakland Center
Wed 05:28:58 AM 37.3653 -121.4961 328° Northwest 472 543 30,000  Level Oakland Center
Wed 05:29:58 AM 37.4775 -121.5833 328° Northwest 477 549 30,000  Level Oakland Center
Wed 05:30:58 AM 37.5878 -121.6706 328° Northwest 477 549 30,000  Level Oakland Center
Wed 05:31:58 AM 37.6997 -121.7583 328° Northwest 477 549 30,000  Level Oakland Center
Wed 05:32:58 AM 37.8097 -121.8464 329° Northwest 477 549 30,000  Level Oakland Center
Wed 05:33:58 AM 37.9236 -121.9344 327° Northwest 477 549 30,000  Level Oakland Center
Wed 05:34:58 AM 38.0356 -122.0256 325° Northwest 477 549 30,000  Level Oakland Center
Wed 05:35:58 AM 38.1536 -122.1303 336° Northwest 477 549 30,000  Level Oakland Center
Wed 05:36:58 AM 38.2656 -122.1928 340° North 472 543 30,000  Level Oakland Center
Wed 05:37:58 AM 38.3900 -122.2506 340° North 472 543 30,000  Level Oakland Center
Wed 05:38:58 AM 38.5186 -122.3114 339° North 477 549 30,000  Level Oakland Center
Wed 05:39:58 AM 38.6411 -122.3719 336° Northwest 477 549 30,000  Level Oakland Center
Wed 05:40:58 AM 38.7633 -122.4408 340° North 477 549 30,000  Level Oakland Center
Wed 05:41:58 AM 38.8917 -122.5022 338° Northwest 477 549 30,000  Level Oakland Center
Wed 05:42:58 AM 39.0161 -122.5664 339° North 477 549 30,000  Level Oakland Center
Wed 05:43:58 AM 39.1403 -122.6281 340° North 477 549 30,000  Level Oakland Center
Wed 05:44:58 AM 39.2686 -122.6900 338° Northwest 477 549 30,000  Level Oakland Center
Wed 05:45:58 AM 39.3928 -122.7547 337° Northwest 482 555 30,000  Level Oakland Center
Wed 05:46:58 AM 39.5189 -122.8225 340° North 482 555 30,000  Level Oakland Center
Wed 05:47:58 AM 39.6453 -122.8825 341° North 482 555 30,000  Level Oakland Center
Wed 05:48:58 AM 39.7756 -122.9400 339° North 488 562 30,000  Level Oakland Center
Wed 05:49:58 AM 39.8997 -123.0031 339° North 488 562 30,000  Level Oakland Center
Wed 05:50:58 AM 40.0278 -123.0664 339° North 488 562 30,000  Level Oakland Center
Wed 05:52:16 AM 40.2067 -123.1558 338° Northwest 489 563 30,000  Level Seattle Center
Wed 05:53:16 AM 40.3300 -123.2219 338° Northwest 486 559 30,000  Level Seattle Center
Wed 05:54:16 AM 40.4542 -123.2869 339° North 483 556 30,000  Level Seattle Center
Wed 05:55:16 AM 40.5783 -123.3511 339° North 483 556 30,000  Level Seattle Center
Wed 05:56:17 AM 40.7056 -123.4156 339° North 487 560 30,000  Level Seattle Center
Wed 05:57:17 AM 40.8311 -123.4800 338° Northwest 488 562 30,000  Level Seattle Center
Wed 05:58:17 AM 40.9558 -123.5464 339° North 487 560 30,000  Level Seattle Center
Wed 05:59:17 AM 41.0808 -123.6114 338° Northwest 486 559 30,000  Level Seattle Center
Wed 06:00:17 AM 41.2092 -123.6794 338° Northwest 492 566 30,000  Level Seattle Center
Wed 06:01:17 AM 41.3358 -123.7478 339° North 494 568 30,000  Level Seattle Center
Wed 06:02:18 AM 41.4606 -123.8133 338° Northwest 488 562 30,000  Level Seattle Center
Wed 06:03:18 AM 41.5856 -123.8811 338° Northwest 487 560 30,000  Level Seattle Center
Wed 06:04:18 AM 41.7119 -123.9489 338° Northwest 489 563 30,000  Level Seattle Center
Wed 06:05:18 AM 41.8372 -124.0167 338° Northwest 488 562 30,000  Level Seattle Center
Wed 06:06:18 AM 41.9625 -124.0850 338° Northwest 487 560 30,000  Level Seattle Center
Wed 06:07:18 AM 42.0881 -124.1539 338° Northwest 488 562 30,000  Level Seattle Center
Wed 06:08:19 AM 42.2133 -124.2222 338° Northwest 488 562 30,000  Level Seattle Center
Wed 06:09:19 AM 42.3386 -124.2911 338° Northwest 487 560 30,000  Level Seattle Center
Wed 06:10:19 AM 42.4639 -124.3597 337° Northwest 487 560 30,000  Level Seattle Center
Wed 06:11:19 AM 42.5886 -124.4300 338° Northwest 487 560 30,000  Level Seattle Center
Wed 06:12:19 AM 42.7142 -124.4997 337° Northwest 487 560 30,000  Level Seattle Center
Wed 06:13:20 AM 42.8394 -124.5708 338° Northwest 489 563 30,000  Level Seattle Center
Wed 06:14:20 AM 42.9578 -124.6367 337° Northwest 487 560 30,000  Level Seattle Center
Wed 06:15:20 AM 43.0842 -124.7086 338° Northwest 490 564 30,000  Level Seattle Center
Wed 06:16:20 AM 43.2106 -124.7797 338° Northwest 491 565 30,000  Level Seattle Center
Wed 06:17:20 AM 43.3375 -124.8519 337° Northwest 493 567 30,000 694 Level Seattle Center
Wed 06:18:21 AM 43.4639 -124.9250 337° Northwest 494 568 31,400 992 Climbing Seattle Center
Wed 06:19:21 AM 43.5906 -124.9983 337° Northwest 493 567 32,000 300 Climbing Seattle Center
Wed 06:20:21 AM 43.7161 -125.0711 337° Northwest 491 565 32,000  Level Seattle Center
Wed 06:21:21 AM 43.8389 -125.1428 337° Northwest 483 556 32,000  Level Seattle Center
Wed 06:22:21 AM 43.9650 -125.2158 337° Northwest 487 560 32,000  Level Seattle Center
Wed 06:23:22 AM 44.0917 -125.2911 337° Northwest 490 564 32,000  Level Seattle Center
Wed 06:24:22 AM 44.2178 -125.3647 337° Northwest 492 566 32,000  Level Seattle Center
Wed 06:25:22 AM 44.3431 -125.4397 337° Northwest 490 564 32,000  Level Seattle Center
Wed 06:26:22 AM 44.4694 -125.5158 338° Northwest 492 566 32,000  Level Seattle Center
Wed 06:27:23 AM 44.5994 -125.5914 334° Northwest 500 575 32,000  Level Seattle Center
Wed 06:28:12 AM 44.6833 -125.6500 333° Northwest 490 564 32,000  Level Vancouver Center
Wed 06:29:12 AM 44.8000 -125.7333 341° North 490 564 32,000  Level Vancouver Center
Wed 06:30:23 AM 44.9761 -125.8181 328° Northwest 489 563 32,000  Level Seattle Center
Wed 06:31:12 AM 45.0500 -125.8833 341° North 490 564 32,000  Level Vancouver Center
Wed 06:32:12 AM 45.1833 -125.9500 336° Northwest 490 564 32,000  Level Vancouver Center
Wed 06:33:12 AM 45.3167 -126.0333 339° North 490 564 32,000  Level Vancouver Center
Wed 06:34:24 AM 45.4792 -126.1239 336° Northwest 491 565 32,000  Level Seattle Center
Wed 06:35:24 AM 45.6011 -126.2028 337° Northwest 488 562 32,000  Level Seattle Center
Wed 06:36:25 AM 45.7264 -126.2803 336° Northwest 488 562 32,000  Level Seattle Center
Wed 06:37:25 AM 45.8503 -126.3600 337° Northwest 489 563 32,000  Level Seattle Center
Wed 06:38:25 AM 45.9997 -126.4531 336° Northwest 489 563 32,000  Level Seattle Center
Wed 06:39:25 AM 46.1244 -126.5333 322° Northwest 490 564 32,000  Level Seattle Center
Wed 06:40:12 AM 46.1833 -126.6000 338° Northwest 490 564 32,000  Level Vancouver Center
Wed 06:41:12 AM 46.3000 -126.6667 340° North 490 564 32,000  Level Vancouver Center
Wed 06:42:26 AM 46.5014 -126.7725 336° Northwest 493 567 32,000  Level Seattle Center
Wed 06:43:26 AM 46.6258 -126.8525 336° Northwest 492 566 32,000  Level Seattle Center
Wed 06:44:26 AM 46.7514 -126.9336 336° Northwest 493 567 32,000  Level Seattle Center
Wed 06:45:27 AM 46.8775 -127.0147 335° Northwest 493 567 32,000  Level Seattle Center
Wed 06:46:27 AM 47.0022 -127.0986 324° Northwest 494 568 32,000  Level Seattle Center
Wed 06:47:12 AM 47.0500 -127.1500 339° North 490 564 32,000  Level Vancouver Center
Wed 06:48:27 AM 47.2542 -127.2647 335° Northwest 497 572 32,000  Level Seattle Center
Wed 06:49:28 AM 47.3803 -127.3500 327° Northwest 499 574 32,000  Level Seattle Center
Wed 06:50:12 AM 47.4333 -127.4000 332° Northwest 500 575 32,000  Level Vancouver Center
Wed 06:51:12 AM 47.5833 -127.5167 334° Northwest 510 587 32,000  Level Vancouver Center
Wed 06:52:12 AM 47.7000 -127.6000 337° Northwest 500 575 32,000  Level Vancouver Center
Wed 06:53:12 AM 47.8333 -127.6833 337° Northwest 500 575 32,000  Level Vancouver Center
Wed 06:54:12 AM 47.9667 -127.7667 334° Northwest 500 575 32,000  Level Vancouver Center
Wed 06:55:12 AM 48.0833 -127.8500 337° Northwest 500 575 32,000  Level Vancouver Center
Wed 06:56:12 AM 48.2167 -127.9333 337° Northwest 500 575 32,000  Level Vancouver Center
Wed 06:57:12 AM 48.3500 -128.0167 335° Northwest 500 575 32,000  Level Vancouver Center
Wed 06:58:12 AM 48.4667 -128.1000 334° Northwest 510 587 32,000  Level Vancouver Center
Wed 06:59:12 AM 48.6000 -128.2000 346° North 510 587 32,000  Level Vancouver Center
Wed 07:00:12 AM 48.7333 -128.2500 334° Northwest 500 575 32,000  Level Vancouver Center
Wed 07:01:12 AM 48.8667 -128.3500 346° North 510 587 32,000  Level Vancouver Center
Wed 07:02:12 AM 49.0000 -128.4000 334° Northwest 510 587 32,000  Level Vancouver Center
Wed 07:03:12 AM 49.1333 -128.5000 335° Northwest 500 575 32,000  Level Vancouver Center
Wed 07:04:12 AM 49.2500 -128.5833 344° North 510 587 32,000  Level Vancouver Center
Wed 07:05:12 AM 49.4000 -128.6500 335° Northwest 510 587 32,000  Level Vancouver Center
Wed 07:06:12 AM 49.5167 -128.7333 342° North 500 575 32,000  Level Vancouver Center
Wed 07:07:12 AM 49.6500 -128.8000 334° Northwest 500 575 32,000  Level Vancouver Center
Wed 07:08:12 AM 49.7833 -128.9000 342° North 500 575 32,000  Level Vancouver Center
Wed 07:09:12 AM 49.9167 -128.9667 332° Northwest 500 575 32,000  Level Vancouver Center
Wed 07:10:12 AM 50.0167 -129.0500 331° Northwest 490 564 32,000  Level Vancouver Center
Wed 07:11:12 AM 50.1500 -129.1667 327° Northwest 480 552 32,000  Level Vancouver Center
Wed 07:12:12 AM 50.2667 -129.2833 323° Northwest 490 564 32,000  Level Vancouver Center
Wed 07:13:12 AM 50.3667 -129.4000 328° Northwest 480 552 32,000  Level Vancouver Center
Wed 07:14:12 AM 50.4833 -129.5167 328° Northwest 490 564 32,000  Level Vancouver Center
Wed 07:15:12 AM 50.6167 -129.6500 318° Northwest 490 564 32,000  Level Vancouver Center
Wed 07:16:12 AM 50.7000 -129.7667 331° Northwest 490 564 32,000  Level Vancouver Center
Wed 07:17:12 AM 50.8333 -129.8833 332° Northwest 490 564 32,000  Level Vancouver Center
Wed 07:18:12 AM 50.9500 -129.9833 324° Northwest 490 564 32,000  Level Vancouver Center
Wed 07:19:12 AM 51.0500 -130.1000 328° Northwest 490 564 32,000  Level Vancouver Center
Wed 07:20:12 AM 51.1667 -130.2167 324° Northwest 480 552 32,000  Level Vancouver Center
Wed 07:21:12 AM 51.2833 -130.3500 328° Northwest 490 564 32,000  Level Vancouver Center
Wed 07:22:12 AM 51.4000 -130.4667 328° Northwest 480 552 32,000  Level Vancouver Center
Wed 07:23:12 AM 51.5000 -130.5667 328° Northwest 480 552 32,000  Level Vancouver Center
Wed 07:24:12 AM 51.6167 -130.6833 325° Northwest 480 552 32,000  Level Vancouver Center
Wed 07:25:12 AM 51.7333 -130.8167 328° Northwest 480 552 32,000  Level Vancouver Center
Wed 07:26:12 AM 51.8500 -130.9333 321° Northwest 480 552 32,000  Level Vancouver Center
Wed 07:27:12 AM 51.9500 -131.0667 332° Northwest 480 552 32,000  Level Vancouver Center
Wed 07:28:12 AM 52.0667 -131.1667 338° Northwest 480 552 32,000  Level Vancouver Center
Wed 07:29:03 AM 52.1667 -131.2333 316° Northwest 490 564 32,000  Level Anchorage Center
Wed 07:30:12 AM 52.2833 -131.4167 325° Northwest 480 552 32,000  Level Vancouver Center
Wed 07:31:12 AM 52.4000 -131.5500 343° North 480 552 32,000  Level Vancouver Center
Wed 07:32:04 AM 52.5000 -131.6000 321° Northwest 480 552 32,000  Level Anchorage Center
Wed 07:33:04 AM 52.6000 -131.7333 329° Northwest 470 541 32,000  Level Anchorage Center
Wed 07:34:04 AM 52.7167 -131.8500 325° Northwest 480 552 32,000  Level Anchorage Center
Wed 07:35:05 AM 52.8167 -131.9667 329° Northwest 480 552 32,000  Level Anchorage Center
Wed 07:36:05 AM 52.9333 -132.0833 321° Northwest 480 552 32,000  Level Anchorage Center
Wed 07:37:06 AM 53.0333 -132.2167 326° Northwest 470 541 32,000  Level Anchorage Center
Wed 07:38:06 AM 53.1500 -132.3500 325° Northwest 470 541 32,000  Level Anchorage Center
Wed 07:39:06 AM 53.2500 -132.4667 312° West 470 541 32,000  Level Anchorage Center
Wed 07:40:12 AM 53.3500 -132.6500 329° Northwest 480 552 32,000  Level Vancouver Center
Wed 07:41:12 AM 53.4833 -132.7833 316° Northwest 470 541 32,000  Level Vancouver Center
Wed 07:42:12 AM 53.5667 -132.9167 333° Northwest 480 552 32,000  Level Vancouver Center
Wed 07:43:12 AM 53.7000 -133.0333 317° Northwest 470 541 32,000  Level Vancouver Center
Wed 07:44:12 AM 53.7833 -133.1667 326° Northwest 470 541 32,000  Level Vancouver Center
Wed 07:45:13 AM 53.9000 -133.3000 322° Northwest 470 541 32,000  Level Vancouver Center
Wed 07:46:12 AM 54.0000 -133.4333 330° Northwest 470 541 32,000  Level Vancouver Center
Wed 07:47:12 AM 54.1167 -133.5500 322° Northwest 470 541 32,000  Level Vancouver Center
Wed 07:48:12 AM 54.2167 -133.6833 313° West 470 541 32,000  Level Vancouver Center
Wed 07:49:12 AM 54.3167 -133.8667 325° Northwest 470 541 32,000  Level Vancouver Center
Wed 07:50:10 AM 54.4000 -133.9667 319° Northwest 480 552 32,000  Level Anchorage Center
Wed 07:51:10 AM 54.5000 -134.1167 316° Northwest 470 541 32,000  Level Anchorage Center
Wed 07:52:10 AM 54.6000 -134.2833 311° West 470 541 32,000  Level Anchorage Center
Wed 07:53:11 AM 54.6667 -134.4167 305° West 470 541 32,000  Level Anchorage Center
Wed 07:54:12 AM 54.7667 -134.6667 316° Northwest 470 541 32,000  Level Vancouver Center
Wed 07:55:12 AM 54.8667 -134.8333 314° West 470 541 32,000  Level Vancouver Center
Wed 07:56:12 AM 54.9500 -134.9833 330° Northwest 470 541 32,000  Level Vancouver Center
Wed 07:57:12 AM 55.0333 -135.0667 316° Northwest 470 541 32,000  Level Anchorage Center
Wed 07:58:13 AM 55.1333 -135.2333 311° West 470 541 32,000  Level Anchorage Center
Wed 07:59:13 AM 55.2167 -135.4000 311° West 470 541 32,000  Level Anchorage Center
Wed 08:00:13 AM 55.3000 -135.5667 305° West 470 541 32,000  Level Anchorage Center
Wed 08:01:12 AM 55.4000 -135.8167 314° West 470 541 32,000  Level Vancouver Center
Wed 08:02:12 AM 55.5000 -136.0000 318° Northwest 470 541 32,000  Level Vancouver Center
Wed 08:03:12 AM 55.5833 -136.1333 315° West 470 541 32,000  Level Vancouver Center
Wed 08:04:12 AM 55.6667 -136.2833 309° West 470 541 32,000  Level Vancouver Center
Wed 08:05:12 AM 55.7500 -136.4667 312° West 470 541 32,000  Level Vancouver Center
Wed 08:06:12 AM 55.8333 -136.6333 314° West 470 541 32,000  Level Vancouver Center
Wed 08:07:12 AM 55.9333 -136.8167 315° West 470 541 32,000  Level Vancouver Center
Wed 08:08:12 AM 56.0167 -136.9667 309° West 470 541 32,000  Level Vancouver Center
Wed 08:09:13 AM 56.1000 -137.1500 309° West 470 541 32,000  Level Vancouver Center
Wed 08:10:12 AM 56.1833 -137.3333 331° Northwest 470 541 32,000  Level Vancouver Center
Wed 08:11:18 AM 56.2833 -137.4333 293° West 470 541 32,000  Level Anchorage Center
Wed 08:12:12 AM 56.3500 -137.7167 293° West 470 541 32,000  Level Vancouver Center
Wed 08:13:12 AM 56.4000 -137.9333 294° West 470 541 32,000  Level Vancouver Center
Wed 08:14:13 AM 56.4500 -138.1333 301° West 470 541 32,000  Level Vancouver Center
Wed 08:15:12 AM 56.5167 -138.3333 291° West 470 541 32,000  Level Vancouver Center
Wed 08:16:12 AM 56.5667 -138.5667 299° West 470 541 32,000  Level Vancouver Center
Wed 08:17:12 AM 56.6333 -138.7833 295° West 470 541 32,000  Level Vancouver Center
Wed 08:18:12 AM 56.6833 -138.9833 299° West 470 541 32,000  Level Vancouver Center
Wed 08:19:12 AM 56.7500 -139.2000 295° West 470 541 32,000  Level Vancouver Center
Wed 08:20:12 AM 56.8000 -139.4000 295° West 470 541 32,000  Level Vancouver Center
Wed 08:21:12 AM 56.8500 -139.6000 290° West 470 541 32,000  Level Vancouver Center
Wed 08:22:12 AM 56.9000 -139.8500 300° West 470 541 32,000  Level Vancouver Center
Wed 08:23:12 AM 56.9667 -140.0667 295° West 470 541 32,000  Level Vancouver Center
Wed 08:24:12 AM 57.0167 -140.2667 300° West 470 541 32,000  Level Vancouver Center
Wed 08:25:12 AM 57.0833 -140.4833 287° West 470 541 32,000  Level Vancouver Center
Wed 08:26:12 AM 57.1167 -140.6833 293° West 460 529 32,000  Level Vancouver Center
Wed 08:27:12 AM 57.1667 -140.9000 300° West 460 529 32,000  Level Vancouver Center
Wed 08:28:12 AM 57.2333 -141.1167 305° West 460 529 32,000  Level Vancouver Center
Wed 08:29:25 AM 57.2833 -141.2500 293° West 450 518 32,000  Level Anchorage Center
Wed 08:30:25 AM 57.3333 -141.4667 300° West 450 518 32,000  Level Anchorage Center
Wed 08:31:25 AM 57.4000 -141.6833 293° West 460 529 32,000  Level Anchorage Center
Wed 08:32:26 AM 57.4500 -141.9000 293° West 460 529 32,000  Level Anchorage Center
Wed 08:33:26 AM 57.5000 -142.1167 293° West 460 529 32,000  Level Anchorage Center
Wed 08:34:26 AM 57.5500 -142.3333 292° West 460 529 32,000  Level Anchorage Center
Wed 08:35:27 AM 57.6000 -142.5667 293° West 460 529 32,000  Level Anchorage Center
Wed 08:36:27 AM 57.6500 -142.7833 292° West 460 529 32,000  Level Anchorage Center
Wed 08:37:28 AM 57.7000 -143.0167 293° West 460 529 32,000  Level Anchorage Center
Wed 08:38:28 AM 57.7500 -143.2333 293° West 460 529 32,000  Level Anchorage Center
Wed 08:39:28 AM 57.8000 -143.4500 292° West 450 518 32,000  Level Anchorage Center
Wed 08:40:29 AM 57.8500 -143.6833 294° West 460 529 32,000  Level Anchorage Center
Wed 08:41:29 AM 57.9000 -143.9000 285° West 460 529 32,000  Level Anchorage Center
Wed 08:42:30 AM 57.9333 -144.1333 294° West 460 529 32,000  Level Anchorage Center
Wed 08:43:30 AM 57.9833 -144.3500 294° West 450 518 32,000  Level Anchorage Center
Wed 08:44:30 AM 58.0333 -144.5667 292° West 460 529 32,000  Level Anchorage Center
Wed 08:45:30 AM 58.0833 -144.8000 294° West 450 518 32,000  Level Anchorage Center
Wed 08:46:31 AM 58.1333 -145.0167 285° West 450 518 32,000  Level Anchorage Center
Wed 08:47:31 AM 58.1667 -145.2500 292° West 450 518 32,000  Level Anchorage Center
Wed 08:48:32 AM 58.2167 -145.4833 294° West 460 529 32,000  Level Anchorage Center
Wed 08:49:32 AM 58.2667 -145.7000 285° West 460 529 32,000  Level Anchorage Center
Wed 08:50:32 AM 58.3000 -145.9333 292° West 460 529 32,000  Level Anchorage Center
Wed 08:51:33 AM 58.3500 -146.1667 292° West 450 518 32,000  Level Anchorage Center
Wed 08:52:33 AM 58.4000 -146.4000 285° West 460 529 32,000  Level Anchorage Center
Wed 08:53:34 AM 58.4333 -146.6333 292° West 460 529 32,000  Level Anchorage Center
Wed 08:54:34 AM 58.4833 -146.8667 294° West 450 518 32,000  Level Anchorage Center
Wed 08:55:34 AM 58.5333 -147.0833 285° West 450 518 32,000  Level Anchorage Center
Wed 08:56:34 AM 58.5667 -147.3167 292° West 460 529 32,000  Level Anchorage Center
Wed 08:57:34 AM 58.6167 -147.5500 284° West 460 529 32,000  Level Anchorage Center
Wed 08:58:35 AM 58.6500 -147.8000 292° West 460 529 32,000  Level Anchorage Center
Wed 08:59:35 AM 58.7000 -148.0333 285° West 460 529 32,000  Level Anchorage Center
Wed 09:00:36 AM 58.7333 -148.2667 285° West 460 529 32,000  Level Anchorage Center
Wed 09:01:36 AM 58.7667 -148.5000 293° West 450 518 32,000  Level Anchorage Center
Wed 09:02:36 AM 58.8167 -148.7333 286° West 460 529 32,000  Level Anchorage Center
Wed 09:03:37 AM 58.8500 -148.9667 286° West 460 529 32,000  Level Anchorage Center
Wed 09:04:37 AM 58.8833 -149.2000 291° West 450 518 32,000  Level Anchorage Center
Wed 09:05:38 AM 58.9333 -149.4500 286° West 460 529 32,000  Level Anchorage Center
Wed 09:06:38 AM 58.9667 -149.6833 286° West 440 506 32,000  Level Anchorage Center
Wed 09:07:38 AM 59.0000 -149.9167 285° West 450 518 32,000  Level Anchorage Center
Wed 09:08:38 AM 59.0333 -150.1667 293° West 450 518 32,000  Level Anchorage Center
Wed 09:09:39 AM 59.0833 -150.4000 286° West 450 518 32,000  Level Anchorage Center
Wed 09:10:39 AM 59.1167 -150.6333 286° West 450 518 32,000  Level Anchorage Center
Wed 09:11:40 AM 59.1500 -150.8667 285° West 450 518 32,000  Level Anchorage Center
Wed 09:12:40 AM 59.1833 -151.1167 286° West 450 518 32,000  Level Anchorage Center
Wed 09:13:40 AM 59.2167 -151.3500 285° West 460 529 32,000  Level Anchorage Center
Wed 09:14:41 AM 59.2500 -151.6000 286° West 460 529 32,000  Level Anchorage Center
Wed 09:15:41 AM 59.2833 -151.8333 285° West 460 529 32,000  Level Anchorage Center
Wed 09:16:41 AM 59.3167 -152.0833 285° West 460 529 32,000  Level Anchorage Center
Wed 09:17:41 AM 59.3500 -152.3333 286° West 460 529 32,000  Level Anchorage Center
Wed 09:18:42 AM 59.3833 -152.5667 285° West 460 529 32,000  Level Anchorage Center
Wed 09:19:42 AM 59.4167 -152.8167 285° West 460 529 32,000  Level Anchorage Center
Wed 09:20:43 AM 59.4500 -153.0667 283° West 450 518 32,000  Level Anchorage Center
Wed 09:21:43 AM 59.4833 -153.3500 285° West 460 529 32,000  Level Anchorage Center
Wed 09:22:44 AM 59.5167 -153.6000 285° West 470 541 32,000  Level Anchorage Center
Wed 09:23:44 AM 59.5500 -153.8500 285° West 460 529 32,000  Level Anchorage Center
Wed 09:24:44 AM 59.5833 -154.1000 278° West 470 541 32,000  Level Anchorage Center
Wed 09:25:45 AM 59.6000 -154.3333 285° West 460 529 32,000  Level Anchorage Center
Wed 09:26:45 AM 59.6333 -154.5833 285° West 460 529 32,000  Level Anchorage Center
Wed 09:27:45 AM 59.6667 -154.8333 278° West 460 529 32,000  Level Anchorage Center
Wed 09:28:46 AM 59.6833 -155.0833 285° West 460 529 32,000  Level Anchorage Center
Wed 09:29:46 AM 59.7167 -155.3333 285° West 470 541 32,000  Level Anchorage Center
Wed 09:30:46 AM 59.7500 -155.5833 277° West 460 529 32,000  Level Anchorage Center
Wed 09:31:47 AM 59.7667 -155.8667 285° West 460 529 32,000  Level Anchorage Center
Wed 09:32:47 AM 59.8000 -156.1167 278° West 460 529 32,000  Level Anchorage Center
Wed 09:33:47 AM 59.8167 -156.3500 285° West 460 529 32,000  Level Anchorage Center
Wed 09:34:48 AM 59.8500 -156.6000 278° West 460 529 32,000  Level Anchorage Center
Wed 09:35:48 AM 59.8667 -156.8500 284° West 470 541 32,000  Level Anchorage Center
Wed 09:36:48 AM 59.9000 -157.1167 278° West 470 541 32,000  Level Anchorage Center
Wed 09:37:49 AM 59.9167 -157.3667 284° West 470 541 32,000 248 Level Anchorage Center
Wed 09:38:49 AM 59.9500 -157.6333 278° West 470 541 32,500 496 Climbing Anchorage Center
Wed 09:39:50 AM 59.9667 -157.8833 277° West 470 541 33,000 248 Climbing Anchorage Center
Wed 09:40:50 AM 59.9833 -158.1500 282° West 470 541 33,000  Level Anchorage Center
Wed 09:41:50 AM 60.0167 -158.4667 278° West 470 541 33,000  Level Anchorage Center
Wed 09:42:51 AM 60.0333 -158.7167 284° West 470 541 33,000  Level Anchorage Center
Wed 09:43:51 AM 60.0667 -158.9833 278° West 480 552 33,000  Level Anchorage Center
Wed 09:44:51 AM 60.0833 -159.2333 277° West 480 552 33,000  Level Anchorage Center
Wed 09:45:52 AM 60.1000 -159.5000 278° West 480 552 33,000  Level Anchorage Center
Wed 09:46:52 AM 60.1167 -159.7500 277° West 470 541 33,000  Level Anchorage Center
Wed 09:47:53 AM 60.1333 -160.0167 277° West 480 552 33,000  Level Anchorage Center
Wed 09:48:53 AM 60.1500 -160.2833 277° West 480 552 33,000  Level Anchorage Center
Wed 09:49:53 AM 60.1667 -160.5500 277° West 480 552 33,000  Level Anchorage Center
Wed 09:50:54 AM 60.1833 -160.8167 282° West 480 552 33,000  Level Anchorage Center
Wed 09:51:54 AM 60.2167 -161.1333 270° West 470 541 33,000  Level Anchorage Center
Wed 09:52:54 AM 60.2167 -161.4000 277° West 480 552 33,000  Level Anchorage Center
Wed 09:53:55 AM 60.2333 -161.6667 277° West 480 552 33,000  Level Anchorage Center
Wed 09:55:56 AM 60.2667 -162.2000 277° West 470 541 33,000  Level Anchorage Center
Wed 09:56:56 AM 60.2833 -162.4667 277° West 480 552 33,000  Level Anchorage Center
Wed 09:57:56 AM 60.3000 -162.7333 277° West 480 552 33,000  Level Anchorage Center
Wed 09:58:57 AM 60.3167 -163.0000 270° West 480 552 33,000  Level Anchorage Center
Wed 09:59:57 AM 60.3167 -163.2667 278° West 480 552 33,000  Level Anchorage Center
Wed 10:00:57 AM 60.3333 -163.5167 277° West 480 552 33,000  Level Anchorage Center
Wed 10:01:58 AM 60.3500 -163.7833 277° West 490 564 33,000  Level Anchorage Center
Wed 10:02:58 AM 60.3667 -164.0667 270° West 490 564 33,000  Level Anchorage Center
Wed 10:03:58 AM 60.3667 -164.3333 277° West 480 552 33,000  Level Anchorage Center
Wed 10:04:59 AM 60.3833 -164.6167 273° West 490 564 33,000  Level Anchorage Center
Wed 10:07:04 AM 60.4000 -165.2167 277° West 480 552 33,000  Level Anchorage Center
Wed 10:08:04 AM 60.4167 -165.4833 270° West 480 552 33,000  Level Anchorage Center
Wed 10:09:04 AM 60.4167 -165.7667 270° West 480 552 33,000  Level Anchorage Center
Wed 10:10:04 AM 60.4167 -166.0333 277° West 480 552 33,000  Level Anchorage Center
Wed 10:11:04 AM 60.4333 -166.3167 270° West 490 564 33,000  Level Anchorage Center
Wed 10:12:04 AM 60.4333 -166.5833 277° West 480 552 33,000  Level Anchorage Center
Wed 10:13:04 AM 60.4500 -166.8667 270° West 490 564 33,000  Level Anchorage Center
Wed 10:14:04 AM 60.4500 -167.1500 270° West 490 564 33,000  Level Anchorage Center
Wed 10:15:04 AM 60.4500 -167.4333 270° West 490 564 33,000  Level Anchorage Center
Wed 10:16:04 AM 60.4500 -167.7000 270° West 490 564 33,000  Level Anchorage Center
Wed 10:17:04 AM 60.4500 -167.9333 277° West 490 564 33,000  Level Anchorage Center
Wed 10:18:04 AM 60.4667 -168.2167 270° West 490 564 33,000  Level Anchorage Center
Wed 10:19:05 AM 60.4667 -168.5500 270° West 490 564 33,000  Level Anchorage Center
Wed 10:20:05 AM 60.4667 -168.7667 270° West 490 564 33,000 101 Level Anchorage Center
Wed 10:21:04 AM 60.4667 -169.0500 270° West 490 564 33,200 504 Climbing Anchorage Center
Wed 10:22:04 AM 60.4667 -169.3167 270° West 480 552 34,000 397 Climbing Anchorage Center
Wed 10:23:05 AM 60.4667 -169.6000 270° West 490 564 34,000  Level Anchorage Center
Wed 10:24:05 AM 60.4667 -169.8833 270° West 490 564 34,000  Level Anchorage Center
Wed 10:25:05 AM 60.4667 -170.1500 263° West 490 564 34,000  Level Anchorage Center
Wed 10:26:05 AM 60.4500 -170.4333 270° West 490 564 34,000  Level Anchorage Center
Wed 10:27:05 AM 60.4500 -170.7167 270° West 500 575 34,000  Level Anchorage Center
Wed 10:28:05 AM 60.4500 -170.9833 270° West 490 564 34,000  Level Anchorage Center
Wed 10:29:05 AM 60.4500 -171.2667 270° West 490 564 34,000  Level Anchorage Center
Wed 10:30:05 AM 60.4500 -171.5500 263° West 490 564 34,000  Level Anchorage Center
Wed 10:31:05 AM 60.4333 -171.8167 270° West 480 552 34,000  Level Anchorage Center
Wed 10:32:05 AM 60.4333 -172.1500 263° West 490 564 34,000  Level Anchorage Center
Wed 10:33:05 AM 60.4167 -172.4167 270° West 490 564 34,000  Level Anchorage Center
Wed 10:34:05 AM 60.4167 -172.7000 270° West 490 564 34,000  Level Anchorage Center
Wed 10:35:05 AM 60.4167 -172.9833 263° West 490 564 34,000  Level Anchorage Center
Wed 10:36:05 AM 60.4000 -173.2500 270° West 490 564 34,000  Level Anchorage Center
Wed 10:37:06 AM 60.4000 -173.5333 263° West 490 564 34,000  Level Anchorage Center
Wed 10:38:05 AM 60.3833 -173.8167 263° West 500 575 34,000  Level Anchorage Center
Wed 10:39:06 AM 60.3667 -174.1000 270° West 490 564 34,000  Level Anchorage Center
Wed 10:40:05 AM 60.3667 -174.3667 263° West 490 564 34,000  Level Anchorage Center
Wed 10:41:05 AM 60.3500 -174.6500 267° West 490 564 34,000  Level Anchorage Center
Wed 10:43:12 AM 60.3333 -175.1833 266° West 501 577 34,000  Level Anchorage Center
Wed 10:53:00 AM 60.2000 -177.9000 252° West 513 590 34,000  Level Anchorage Center
Wed 10:57:05 AM 60.0167 -178.9833 253° West 516 594 34,000  Level Anchorage Center
Wed 11:00:32 AM 59.8660 -179.9283 251° West 513 590 34,000  Level FlightAware Transoceanic
Wed 11:04:32 AM 59.6738 178.9908 250° West 516 594 34,000  Level FlightAware Transoceanic
Wed 11:05:32 AM 59.6234 178.7142 250° West 516 594 34,000  Level FlightAware Transoceanic
Wed 11:06:32 AM 59.5724 178.4383 250° West 516 594 34,000  Level FlightAware Transoceanic
Wed 11:07:32 AM 59.5208 178.1633 250° West 516 594 34,000  Level FlightAware Transoceanic
Wed 11:08:32 AM 59.4686 177.8892 249° West 516 594 34,000  Level FlightAware Transoceanic
Wed 11:09:32 AM 59.4159 177.6158 249° West 516 594 34,000  Level FlightAware Transoceanic
Wed 11:10:32 AM 59.3626 177.3434 249° West 516 594 34,000  Level FlightAware Transoceanic
Wed 11:11:32 AM 59.3087 177.0718 249° West 516 594 34,000  Level FlightAware Transoceanic
Wed 11:12:32 AM 59.2543 176.8011 248° West 516 594 34,000  Level FlightAware Transoceanic
Wed 11:13:32 AM 59.1993 176.5312 248° West 516 594 34,000  Level FlightAware Transoceanic
Wed 11:14:32 AM 59.1437 176.2622 248° West 516 594 34,000  Level FlightAware Transoceanic
Wed 11:15:32 AM 59.0876 175.9941 248° West 516 594 34,000  Level FlightAware Transoceanic
Wed 11:16:32 AM 59.0309 175.7269 247° West 516 594 34,000  Level FlightAware Transoceanic
Wed 11:17:32 AM 58.9737 175.4605 247° West 516 594 34,000  Level FlightAware Transoceanic
Wed 11:18:32 AM 58.9160 175.1951 247° West 516 594 34,000  Level FlightAware Transoceanic
Wed 11:19:32 AM 58.8577 174.9305 247° West 516 594 34,000  Level FlightAware Transoceanic
Wed 11:20:32 AM 58.7989 174.6668 247° West 516 594 34,000  Level FlightAware Transoceanic
Wed 11:21:32 AM 58.7395 174.4040 246° West 516 594 34,000  Level FlightAware Transoceanic
Wed 11:22:32 AM 58.6796 174.1422 246° West 516 594 34,000  Level FlightAware Transoceanic
Wed 11:23:32 AM 58.6192 173.8812 246° West 516 594 34,000  Level FlightAware Transoceanic
Wed 11:24:32 AM 58.5582 173.6211 246° West 516 594 34,000  Level FlightAware Transoceanic
Wed 11:25:32 AM 58.4967 173.3619 245° Southwest 516 594 34,000  Level FlightAware Transoceanic
Wed 11:26:32 AM 58.4347 173.1037 245° Southwest 516 594 34,000  Level FlightAware Transoceanic
Wed 11:27:32 AM 58.3722 172.8463 245° Southwest 516 594 34,000  Level FlightAware Transoceanic
Wed 11:28:32 AM 58.3092 172.5899 245° Southwest 516 594 34,000  Level FlightAware Transoceanic
Wed 11:29:32 AM 58.2456 172.3344 245° Southwest 516 594 34,000  Level FlightAware Transoceanic
Wed 11:30:32 AM 58.1816 172.0798 244° Southwest 516 594 34,000  Level FlightAware Transoceanic
Wed 11:31:32 AM 58.1170 171.8261 244° Southwest 516 594 34,000  Level FlightAware Transoceanic
Wed 11:32:32 AM 58.0520 171.5733 244° Southwest 516 594 34,000  Level FlightAware Transoceanic
Wed 11:33:32 AM 57.9864 171.3215 244° Southwest 516 594 34,000  Level FlightAware Transoceanic
Wed 11:34:32 AM 57.9203 171.0706 244° Southwest 516 594 34,000  Level FlightAware Transoceanic
Wed 11:35:32 AM 57.8538 170.8206 243° Southwest 516 594 34,000  Level FlightAware Transoceanic
Wed 11:36:32 AM 57.7868 170.5715 243° Southwest 516 594 34,000  Level FlightAware Transoceanic
Wed 11:37:32 AM 57.7192 170.3234 243° Southwest 516 594 34,000  Level FlightAware Transoceanic
Wed 11:38:32 AM 57.6512 170.0762 243° Southwest 516 594 34,000  Level FlightAware Transoceanic
Wed 11:39:32 AM 57.5827 169.8299 242° Southwest 516 594 34,000  Level FlightAware Transoceanic
Wed 11:40:32 AM 57.5138 169.5846 242° Southwest 516 594 34,000  Level FlightAware Transoceanic
Wed 11:41:32 AM 57.4444 169.3401 242° Southwest 516 594 34,000  Level FlightAware Transoceanic
Wed 11:42:32 AM 57.3744 169.0966 242° Southwest 516 594 34,000  Level FlightAware Transoceanic
Wed 11:43:32 AM 57.3041 168.8541 242° Southwest 516 594 34,000  Level FlightAware Transoceanic
Wed 11:44:32 AM 57.2332 168.6124 243° Southwest 516 594 34,000  Level FlightAware Transoceanic
Wed 11:45:32 AM 57.1722 168.3939 243° Southwest  Level FlightAware Approximate
Wed 11:46:32 AM 57.1108 168.1761 242° Southwest  Level FlightAware Approximate
Wed 11:47:32 AM 57.0490 167.9590 242° Southwest  Level FlightAware Approximate
Wed 11:48:32 AM 56.9869 167.7427 242° Southwest  Level FlightAware Approximate
Wed 11:49:32 AM 56.9244 167.5270 242° Southwest  Level FlightAware Approximate
Wed 11:50:32 AM 56.8615 167.3121 242° Southwest  Level FlightAware Approximate
Wed 11:51:32 AM 56.7982 167.0979 242° Southwest  Level FlightAware Approximate
Wed 11:52:32 AM 56.7346 166.8844 241° Southwest  Level FlightAware Approximate
Wed 11:53:32 AM 56.6706 166.6717 241° Southwest  Level FlightAware Approximate
Wed 11:54:32 AM 56.6063 166.4597 241° Southwest  Level FlightAware Approximate
Wed 11:55:32 AM 56.5416 166.2484 241° Southwest  Level FlightAware Approximate
Wed 11:56:32 AM 56.4765 166.0378 241° Southwest  Level FlightAware Approximate
Wed 11:57:32 AM 56.4111 165.8280 240° Southwest  Level FlightAware Approximate
Wed 11:58:32 AM 56.3453 165.6188 240° Southwest  Level FlightAware Approximate
Wed 11:59:32 AM 56.2792 165.4104 240° Southwest  Level FlightAware Approximate
Wed 12:00:32 PM 56.2127 165.2027 240° Southwest  Level FlightAware Approximate
Wed 12:01:32 PM 56.1459 164.9958 240° Southwest  Level FlightAware Approximate
Wed 12:02:32 PM 56.0788 164.7895 240° Southwest  Level FlightAware Approximate
Wed 12:03:32 PM 56.0113 164.5840 239° Southwest  Level FlightAware Approximate
Wed 12:04:32 PM 55.9434 164.3792 239° Southwest  Level FlightAware Approximate
Wed 12:05:32 PM 55.8752 164.1751 239° Southwest  Level FlightAware Approximate
Wed 12:06:32 PM 55.8067 163.9718 239° Southwest  Level FlightAware Approximate
Wed 12:07:32 PM 55.7379 163.7691 239° Southwest  Level FlightAware Approximate
Wed 12:08:32 PM 55.6687 163.5672 239° Southwest  Level FlightAware Approximate
Wed 12:09:32 PM 55.5992 163.3660 238° Southwest  Level FlightAware Approximate
Wed 12:10:32 PM 55.5293 163.1654 238° Southwest  Level FlightAware Approximate
Wed 12:11:32 PM 55.4591 162.9656 238° Southwest  Level FlightAware Approximate
Wed 12:12:32 PM 55.3886 162.7666 243° Southwest  Level FlightAware Approximate
Wed 12:13:32 PM 55.3287 162.5573 243° Southwest  Level FlightAware Approximate
Wed 12:14:32 PM 55.2685 162.3487 243° Southwest  Level FlightAware Approximate
Wed 12:15:32 PM 55.2078 162.1408 243° Southwest  Level FlightAware Approximate
Wed 12:16:32 PM 55.1469 161.9335 243° Southwest  Level FlightAware Approximate
Wed 12:17:32 PM 55.0855 161.7268 242° Southwest  Level FlightAware Approximate
Wed 12:18:32 PM 55.0238 161.5207 242° Southwest  Level FlightAware Approximate
Wed 12:19:32 PM 54.9618 161.3153 242° Southwest  Level FlightAware Approximate
Wed 12:20:32 PM 54.8994 161.1105 242° Southwest  Level FlightAware Approximate
Wed 12:21:32 PM 54.8367 160.9064 242° Southwest  Level FlightAware Approximate
Wed 12:22:32 PM 54.7737 160.7029 242° Southwest  Level FlightAware Approximate
Wed 12:23:32 PM 54.7103 160.5000 241° Southwest  Level FlightAware Approximate
Wed 12:24:32 PM 54.6465 160.2978 241° Southwest  Level FlightAware Approximate
Wed 12:25:32 PM 54.5825 160.0961 241° Southwest  Level FlightAware Approximate
Wed 12:26:32 PM 54.5181 159.8952 241° Southwest  Level FlightAware Approximate
Wed 12:27:32 PM 54.4533 159.6948 241° Southwest  Level FlightAware Approximate
Wed 12:28:32 PM 54.3883 159.4951 241° Southwest  Level FlightAware Approximate
Wed 12:29:32 PM 54.3229 159.2961 241° Southwest  Level FlightAware Approximate
Wed 12:30:32 PM 54.2572 159.0976 240° Southwest  Level FlightAware Approximate
Wed 12:31:32 PM 54.1911 158.8998 240° Southwest  Level FlightAware Approximate
Wed 12:32:32 PM 54.1247 158.7027 240° Southwest  Level FlightAware Approximate
Wed 12:33:32 PM 54.0580 158.5061 240° Southwest  Level FlightAware Approximate
Wed 12:34:32 PM 53.9910 158.3102 240° Southwest  Level FlightAware Approximate
Wed 12:35:32 PM 53.9237 158.1149 240° Southwest  Level FlightAware Approximate
Wed 12:36:32 PM 53.8561 157.9203 239° Southwest  Level FlightAware Approximate
Wed 12:37:32 PM 53.7881 157.7263 239° Southwest  Level FlightAware Approximate
Wed 12:38:32 PM 53.7198 157.5329 239° Southwest  Level FlightAware Approximate
Wed 12:39:32 PM 53.6513 157.3401 239° Southwest  Level FlightAware Approximate
Wed 12:40:32 PM 53.5824 157.1480 239° Southwest  Level FlightAware Approximate
Wed 12:41:32 PM 53.5132 156.9565 239° Southwest  Level FlightAware Approximate
Wed 12:42:32 PM 53.4437 156.7656 238° Southwest  Level FlightAware Approximate
Wed 12:43:32 PM 53.3739 156.5754 238° Southwest  Level FlightAware Approximate
Wed 12:44:32 PM 53.3038 156.3857 238° Southwest  Level FlightAware Approximate
Wed 12:45:32 PM 53.2334 156.1967 239° Southwest  Level FlightAware Approximate
Wed 12:46:32 PM 53.1643 156.0067 239° Southwest  Level FlightAware Approximate
Wed 12:47:32 PM 53.0949 155.8172 239° Southwest  Level FlightAware Approximate
Wed 12:48:32 PM 53.0252 155.6284 238° Southwest  Level FlightAware Approximate
Wed 12:49:32 PM 52.9552 155.4402 238° Southwest  Level FlightAware Approximate
Wed 12:50:32 PM 52.8849 155.2526 238° Southwest  Level FlightAware Approximate
Wed 12:51:32 PM 52.8143 155.0656 238° Southwest  Level FlightAware Approximate
Wed 12:52:32 PM 52.7435 154.8792 238° Southwest  Level FlightAware Approximate
Wed 12:53:32 PM 52.6723 154.6934 238° Southwest  Level FlightAware Approximate
Wed 12:54:32 PM 52.6008 154.5083 237° Southwest  Level FlightAware Approximate
Wed 12:55:32 PM 52.5291 154.3237 237° Southwest  Level FlightAware Approximate
Wed 12:56:32 PM 52.4571 154.1397 237° Southwest  Level FlightAware Approximate
Wed 12:57:32 PM 52.3848 153.9564 237° Southwest  Level FlightAware Approximate
Wed 12:58:32 PM 52.3122 153.7736 237° Southwest  Level FlightAware Approximate
Wed 12:59:32 PM 52.2393 153.5914 237° Southwest  Level FlightAware Approximate
Wed 01:00:32 PM 52.1661 153.4099 237° Southwest  Level FlightAware Approximate
Wed 01:01:32 PM 52.0927 153.2289 236° Southwest  Level FlightAware Approximate
Wed 01:02:32 PM 52.0190 153.0485 236° Southwest  Level FlightAware Approximate
Wed 01:03:32 PM 51.9450 152.8688 236° Southwest  Level FlightAware Approximate
Wed 01:04:32 PM 51.8707 152.6896 236° Southwest  Level FlightAware Approximate
Wed 01:05:32 PM 51.7962 152.5110 236° Southwest  Level FlightAware Approximate
Wed 01:06:32 PM 51.7214 152.3330 236° Southwest  Level FlightAware Approximate
Wed 01:07:32 PM 51.6463 152.1556 236° Southwest  Level FlightAware Approximate
Wed 01:08:32 PM 51.5710 151.9787 235° Southwest  Level FlightAware Approximate
Wed 01:09:32 PM 51.4954 151.8025 235° Southwest  Level FlightAware Approximate
Wed 01:10:32 PM 51.4196 151.6268 235° Southwest  Level FlightAware Approximate
Wed 01:11:32 PM 51.3434 151.4518 235° Southwest  Level FlightAware Approximate
Wed 01:12:32 PM 51.2671 151.2773 235° Southwest  Level FlightAware Approximate
Wed 01:13:32 PM 51.1904 151.1034 235° Southwest  Level FlightAware Approximate
Wed 01:14:32 PM 51.1135 150.9300 235° Southwest  Level FlightAware Approximate
Wed 01:15:32 PM 51.0364 150.7573 235° Southwest  Level FlightAware Approximate
Wed 01:16:32 PM 50.9590 150.5851 234° Southwest  Level FlightAware Approximate
Wed 01:17:32 PM 50.8813 150.4135 234° Southwest  Level FlightAware Approximate
Wed 01:18:32 PM 50.8034 150.2424 234° Southwest  Level FlightAware Approximate
Wed 01:19:32 PM 50.7252 150.0720 234° Southwest  Level FlightAware Approximate
Wed 01:20:32 PM 50.6468 149.9021 234° Southwest  Level FlightAware Approximate
Wed 01:21:32 PM 50.5681 149.7328 234° Southwest  Level FlightAware Approximate
Wed 01:22:32 PM 50.4893 149.5640 234° Southwest  Level FlightAware Approximate
Wed 01:23:32 PM 50.4101 149.3958 233° Southwest  Level FlightAware Approximate
Wed 01:24:32 PM 50.3307 149.2282 233° Southwest  Level FlightAware Approximate
Wed 01:25:32 PM 50.2511 149.0611 233° Southwest  Level FlightAware Approximate
Wed 01:26:32 PM 50.1712 148.8946 233° Southwest  Level FlightAware Approximate
Wed 01:27:32 PM 50.0911 148.7286 233° Southwest  Level FlightAware Approximate
Wed 01:28:32 PM 50.0108 148.5632 233° Southwest  Level FlightAware Approximate
Wed 01:29:32 PM 49.9302 148.3983 233° Southwest  Level FlightAware Approximate
Wed 01:30:32 PM 49.8494 148.2340 233° Southwest  Level FlightAware Approximate
Wed 01:31:32 PM 49.7684 148.0703 232° Southwest  Level FlightAware Approximate
Wed 01:32:32 PM 49.6871 147.9071 232° Southwest  Level FlightAware Approximate
Wed 01:33:32 PM 49.6057 147.7444 232° Southwest  Level FlightAware Approximate
Wed 01:34:32 PM 49.5239 147.5823 232° Southwest  Level FlightAware Approximate
Wed 01:35:32 PM 49.4420 147.4207 232° Southwest  Level FlightAware Approximate
Wed 01:36:32 PM 49.3598 147.2597 232° Southwest  Level FlightAware Approximate
Wed 01:37:32 PM 49.2774 147.0992 232° Southwest  Level FlightAware Approximate
Wed 01:38:32 PM 49.1948 146.9392 232° Southwest  Level FlightAware Approximate
Wed 01:39:32 PM 49.1120 146.7798 231° Southwest  Level FlightAware Approximate
Wed 01:40:32 PM 49.0289 146.6209 231° Southwest  Level FlightAware Approximate
Wed 01:41:32 PM 48.9457 146.4625 231° Southwest  Level FlightAware Approximate
Wed 01:42:32 PM 48.8622 146.3047 231° Southwest  Level FlightAware Approximate
Wed 01:43:32 PM 48.7785 146.1474 231° Southwest  Level FlightAware Approximate
Wed 01:44:32 PM 48.6946 145.9906 231° Southwest  Level FlightAware Approximate
Wed 01:45:32 PM 48.6104 145.8343 231° Southwest  Level FlightAware Approximate
Wed 01:46:32 PM 48.5261 145.6786 231° Southwest  Level FlightAware Approximate
Wed 01:47:32 PM 48.4416 145.5234 231° Southwest  Level FlightAware Approximate
Wed 01:48:32 PM 48.3568 145.3687 230° Southwest  Level FlightAware Approximate
Wed 01:49:32 PM 48.2718 145.2145 230° Southwest  Level FlightAware Approximate
Wed 01:50:32 PM 48.1867 145.0608 230° Southwest  Level FlightAware Approximate
Wed 01:51:32 PM 48.1013 144.9076 230° Southwest  Level FlightAware Approximate
Wed 01:52:32 PM 48.0157 144.7549 230° Southwest  Level FlightAware Approximate
Wed 01:53:32 PM 47.9299 144.6028 230° Southwest  Level FlightAware Approximate
Wed 01:54:32 PM 47.8440 144.4511 230° Southwest  Level FlightAware Approximate
Wed 01:55:32 PM 47.7578 144.3000 230° Southwest  Level FlightAware Approximate
Wed 01:56:32 PM 47.6714 144.1493 230° Southwest  Level FlightAware Approximate
Wed 01:57:32 PM 47.5848 143.9992 229° Southwest  Level FlightAware Approximate
Wed 01:58:32 PM 47.4981 143.8495 229° Southwest  Level FlightAware Approximate
Wed 01:59:32 PM 47.4111 143.7004 229° Southwest  Level FlightAware Approximate
Wed 02:00:32 PM 47.3240 143.5517 229° Southwest  Level FlightAware Approximate
Wed 02:01:32 PM 47.2366 143.4035 230° Southwest  Level FlightAware Approximate
Wed 02:02:32 PM 47.1509 143.2536 230° Southwest  Level FlightAware Approximate
Wed 02:03:32 PM 47.0650 143.1041 230° Southwest  Level FlightAware Approximate
Wed 02:04:32 PM 46.9789 142.9551 230° Southwest  Level FlightAware Approximate
Wed 02:05:32 PM 46.8925 142.8065 230° Southwest  Level FlightAware Approximate
Wed 02:06:32 PM 46.8060 142.6585 229° Southwest  Level FlightAware Approximate
Wed 02:07:32 PM 46.7193 142.5109 229° Southwest  Level FlightAware Approximate
Wed 02:08:32 PM 46.6325 142.3638 229° Southwest  Level FlightAware Approximate
Wed 02:09:32 PM 46.5454 142.2172 229° Southwest  Level FlightAware Approximate
Wed 02:10:32 PM 46.4581 142.0710 229° Southwest  Level FlightAware Approximate
Wed 02:11:32 PM 46.3707 141.9254 229° Southwest  Level FlightAware Approximate
Wed 02:12:32 PM 46.2831 141.7801 229° Southwest  Level FlightAware Approximate
Wed 02:13:32 PM 46.1953 141.6354 229° Southwest  Level FlightAware Approximate
Wed 02:14:32 PM 46.1073 141.4911 229° Southwest  Level FlightAware Approximate
Wed 02:15:32 PM 46.0191 141.3472 228° Southwest  Level FlightAware Approximate
Wed 02:16:32 PM 45.9308 141.2039 228° Southwest  Level FlightAware Approximate
Wed 02:17:32 PM 45.8422 141.0610 228° Southwest  Level FlightAware Approximate
Wed 02:18:32 PM 45.7535 140.9185 228° Southwest  Level FlightAware Approximate
Wed 02:19:32 PM 45.6646 140.7765 228° Southwest  Level FlightAware Approximate
Wed 02:20:32 PM 45.5756 140.6349 228° Southwest  Level FlightAware Approximate
Wed 02:21:32 PM 45.4864 140.4938 228° Southwest  Level FlightAware Approximate
Wed 02:22:32 PM 45.3969 140.3532 228° Southwest  Level FlightAware Approximate
Wed 02:23:32 PM 45.3074 140.2130 228° Southwest  Level FlightAware Approximate
Wed 02:24:32 PM 45.2176 140.0732 228° Southwest  Level FlightAware Approximate
Wed 02:25:32 PM 45.1277 139.9339 227° Southwest  Level FlightAware Approximate
Wed 02:26:32 PM 45.0376 139.7950 227° Southwest  Level FlightAware Approximate
Wed 02:27:32 PM 44.9473 139.6565 227° Southwest  Level FlightAware Approximate
Wed 02:28:32 PM 44.8569 139.5185 196° South  Level FlightAware Approximate
Wed 02:29:32 PM 44.7378 139.4719 228° Southwest  Level FlightAware Approximate
Wed 02:30:32 PM 44.6483 139.3332 228° Southwest  Level FlightAware Approximate
Wed 02:31:32 PM 44.5587 139.1949 228° Southwest  Level FlightAware Approximate
Wed 02:32:32 PM 44.4689 139.0570 228° Southwest  Level FlightAware Approximate
Wed 02:33:32 PM 44.3789 138.9195 227° Southwest  Level FlightAware Approximate
Wed 02:34:32 PM 44.2888 138.7824 227° Southwest  Level FlightAware Approximate
Wed 02:35:32 PM 44.1985 138.6458 227° Southwest  Level FlightAware Approximate
Wed 02:36:32 PM 44.1080 138.5096 227° Southwest  Level FlightAware Approximate
Wed 02:37:32 PM 44.0174 138.3738 227° Southwest  Level FlightAware Approximate
Wed 02:38:32 PM 43.9266 138.2384 227° Southwest  Level FlightAware Approximate
Wed 02:39:32 PM 43.8357 138.1034 227° Southwest  Level FlightAware Approximate
Wed 02:40:32 PM 43.7446 137.9689 227° Southwest  Level FlightAware Approximate
Wed 02:41:32 PM 43.6533 137.8347 227° Southwest  Level FlightAware Approximate
Wed 02:42:32 PM 43.5619 137.7010 225° Southwest  Level FlightAware Approximate
Wed 02:43:32 PM 43.4679 137.5712 220° Southwest  Level FlightAware Approximate
Wed 02:44:32 PM 43.3658 137.4534 220° Southwest  Level FlightAware Approximate
Wed 02:45:32 PM 43.2636 137.3360 220° Southwest  Level FlightAware Approximate
Wed 02:46:32 PM 43.1614 137.2190 220° Southwest  Level FlightAware Approximate
Wed 02:47:32 PM 43.0589 137.1024 220° Southwest  Level FlightAware Approximate
Wed 02:48:32 PM 42.9564 136.9862 220° Southwest  Level FlightAware Approximate
Wed 02:49:32 PM 42.8538 136.8703 220° Southwest  Level FlightAware Approximate
Wed 02:50:32 PM 42.7510 136.7549 219° Southwest  Level FlightAware Approximate
Wed 02:51:32 PM 42.6481 136.6398 219° Southwest  Level FlightAware Approximate
Wed 02:52:32 PM 42.5452 136.5251 219° Southwest  Level FlightAware Approximate
Wed 02:53:32 PM 42.4421 136.4108 219° Southwest  Level FlightAware Approximate
Wed 02:54:32 PM 42.3388 136.2969 219° Southwest  Level FlightAware Approximate
Wed 02:55:32 PM 42.2355 136.1833 219° Southwest  Level FlightAware Approximate
Wed 02:56:32 PM 42.1321 136.0702 219° Southwest  Level FlightAware Approximate
Wed 02:57:32 PM 42.0285 135.9573 219° Southwest  Level FlightAware Approximate
Wed 02:58:32 PM 41.9249 135.8449 219° Southwest  Level FlightAware Approximate
Wed 02:59:32 PM 41.8211 135.7328 219° Southwest  Level FlightAware Approximate
Wed 03:00:32 PM 41.7172 135.6211 219° Southwest  Level FlightAware Approximate
Wed 03:01:32 PM 41.6132 135.5097 219° Southwest  Level FlightAware Approximate
Wed 03:02:32 PM 41.5091 135.3987 219° Southwest  Level FlightAware Approximate
Wed 03:03:32 PM 41.4049 135.2881 218° Southwest  Level FlightAware Approximate
Wed 03:04:32 PM 41.3006 135.1778 218° Southwest  Level FlightAware Approximate
Wed 03:05:32 PM 41.1962 135.0679 218° Southwest  Level FlightAware Approximate
Wed 03:06:32 PM 41.0917 134.9583 218° Southwest  Level FlightAware Approximate
Wed 03:07:32 PM 40.9870 134.8490 228° Southwest  Level FlightAware Approximate
Wed 03:08:32 PM 40.8983 134.7175 228° Southwest  Level FlightAware Approximate
Wed 03:09:32 PM 40.8095 134.5864 228° Southwest  Level FlightAware Approximate
Wed 03:10:32 PM 40.7205 134.4556 228° Southwest  Level FlightAware Approximate
Wed 03:11:32 PM 40.6314 134.3251 228° Southwest  Level FlightAware Approximate
Wed 03:12:32 PM 40.5421 134.1950 228° Southwest  Level FlightAware Approximate
Wed 03:13:32 PM 40.4526 134.0653 228° Southwest  Level FlightAware Approximate
Wed 03:14:32 PM 40.3631 133.9359 228° Southwest  Level FlightAware Approximate
Wed 03:15:32 PM 40.2733 133.8068 228° Southwest  Level FlightAware Approximate
Wed 03:16:32 PM 40.1835 133.6781 228° Southwest  Level FlightAware Approximate
Wed 03:17:32 PM 40.0935 133.5497 227° Southwest  Level FlightAware Approximate
Wed 03:18:32 PM 40.0033 133.4216 227° Southwest  Level FlightAware Approximate
Wed 03:19:32 PM 39.9130 133.2939 227° Southwest  Level FlightAware Approximate
Wed 03:20:32 PM 39.8226 133.1666 227° Southwest  Level FlightAware Approximate
Wed 03:21:32 PM 39.7320 133.0396 227° Southwest  Level FlightAware Approximate
Wed 03:22:32 PM 39.6413 132.9129 227° Southwest  Level FlightAware Approximate
Wed 03:23:32 PM 39.5505 132.7865 227° Southwest  Level FlightAware Approximate
Wed 03:24:32 PM 39.4595 132.6604 227° Southwest  Level FlightAware Approximate
Wed 03:25:32 PM 39.3684 132.5347 227° Southwest  Level FlightAware Approximate
Wed 03:26:32 PM 39.2771 132.4094 227° Southwest  Level FlightAware Approximate
Wed 03:27:32 PM 39.1857 132.2843 227° Southwest  Level FlightAware Approximate
Wed 03:28:32 PM 39.0942 132.1596 227° Southwest  Level FlightAware Approximate
Wed 03:29:32 PM 39.0026 132.0352 226° Southwest  Level FlightAware Approximate
Wed 03:30:32 PM 38.9108 131.9111 226° Southwest  Level FlightAware Approximate
Wed 03:31:32 PM 38.8189 131.7874 226° Southwest  Level FlightAware Approximate
Wed 03:32:32 PM 38.7268 131.6639 226° Southwest  Level FlightAware Approximate
Wed 03:33:32 PM 38.6347 131.5408 226° Southwest  Level FlightAware Approximate
Wed 03:34:32 PM 38.5424 131.4180 226° Southwest  Level FlightAware Approximate
Wed 03:35:32 PM 38.4499 131.2955 227° Southwest  Level FlightAware Approximate
Wed 03:36:32 PM 38.3588 131.1715 227° Southwest  Level FlightAware Approximate
Wed 03:37:32 PM 38.2676 131.0479 227° Southwest  Level FlightAware Approximate
Wed 03:38:32 PM 38.1763 130.9245 227° Southwest  Level FlightAware Approximate
Wed 03:39:32 PM 38.0848 130.8015 227° Southwest  Level FlightAware Approximate
Wed 03:40:32 PM 37.9932 130.6788 226° Southwest  Level FlightAware Approximate
Wed 03:41:32 PM 37.9014 130.5564 226° Southwest  Level FlightAware Approximate
Wed 03:42:32 PM 37.8096 130.4343 226° Southwest  Level FlightAware Approximate
Wed 03:43:32 PM 37.7176 130.3125 226° Southwest  Level FlightAware Approximate
Wed 03:44:32 PM 37.6255 130.1909 226° Southwest  Level FlightAware Approximate
Wed 03:45:32 PM 37.5332 130.0697 226° Southwest  Level FlightAware Approximate
Wed 03:46:32 PM 37.4409 129.9489 226° Southwest  Level FlightAware Approximate
Wed 03:47:32 PM 37.3484 129.8282 226° Southwest  Level FlightAware Approximate
Wed 03:48:32 PM 37.2558 129.7079 226° Southwest  Level FlightAware Approximate
Wed 03:49:32 PM 37.1630 129.5879 226° Southwest  Level FlightAware Approximate
Wed 03:50:32 PM 37.0702 129.4682 226° Southwest  Level FlightAware Approximate
Wed 03:51:32 PM 36.9772 129.3488 226° Southwest  Level FlightAware Approximate
Wed 03:52:32 PM 36.8841 129.2296 226° Southwest  Level FlightAware Approximate
Wed 03:53:32 PM 36.7909 129.1108 226° Southwest  Level FlightAware Approximate
Wed 03:54:32 PM 36.6976 128.9922 225° Southwest  Level FlightAware Approximate
Wed 03:55:32 PM 36.6041 128.8740 225° Southwest  Level FlightAware Approximate
Wed 03:56:32 PM 36.5106 128.7560 225° Southwest  Level FlightAware Approximate
Wed 03:57:32 PM 36.4169 128.6383 225° Southwest  Level FlightAware Approximate
Wed 03:58:32 PM 36.3231 128.5209 225° Southwest  Level FlightAware Approximate
Wed 03:59:32 PM 36.2292 128.4037 225° Southwest  Level FlightAware Approximate
Wed 04:00:32 PM 36.1352 128.2869 225° Southwest  Level FlightAware Approximate
Wed 04:01:32 PM 36.0411 128.1703 225° Southwest  Level FlightAware Approximate
Wed 04:02:32 PM 35.9468 128.0540 225° Southwest  Level FlightAware Approximate
Wed 04:03:32 PM 35.8525 127.9380 225° Southwest  Level FlightAware Approximate
Wed 04:04:32 PM 35.7580 127.8223 225° Southwest  Level FlightAware Approximate
Wed 04:05:32 PM 35.6634 127.7068 225° Southwest  Level FlightAware Approximate
Wed 04:06:32 PM 35.5687 127.5917 225° Southwest  Level FlightAware Approximate
Wed 04:07:32 PM 35.4739 127.4767 225° Southwest  Level FlightAware Approximate
Wed 04:08:32 PM 35.3790 127.3621 225° Southwest  Level FlightAware Approximate
Wed 04:09:32 PM 35.2840 127.2477 224° Southwest  Level FlightAware Approximate
Wed 04:10:32 PM 35.1889 127.1336 224° Southwest  Level FlightAware Approximate
Wed 04:11:32 PM 35.0936 127.0198 224° Southwest  Level FlightAware Approximate
Wed 04:12:32 PM 34.9983 126.9062 224° Southwest  Level FlightAware Approximate
Wed 04:13:32 PM 34.9029 126.7929 224° Southwest  Level FlightAware Approximate
Wed 04:14:32 PM 34.8073 126.6798 224° Southwest  Level FlightAware Approximate
Wed 04:15:32 PM 34.7117 126.5670 224° Southwest  Level FlightAware Approximate
Wed 04:16:32 PM 34.6159 126.4545 224° Southwest  Level FlightAware Approximate
Wed 04:17:32 PM 34.5201 126.3423 224° Southwest  Level FlightAware Approximate
Wed 04:18:32 PM 34.4241 126.2303 224° Southwest  Level FlightAware Approximate
Wed 04:19:32 PM 34.3280 126.1185 224° Southwest  Level FlightAware Approximate
Wed 04:20:32 PM 34.2319 126.0070 224° Southwest  Level FlightAware Approximate
Wed 04:21:32 PM 34.1356 125.8958 224° Southwest  Level FlightAware Approximate
Wed 04:22:32 PM 34.0392 125.7848 224° Southwest  Level FlightAware Approximate
Wed 04:23:32 PM 33.9428 125.6740 224° Southwest  Level FlightAware Approximate
Wed 04:24:32 PM 33.8462 125.5636 223° Southwest  Level FlightAware Approximate
Wed 04:25:32 PM 33.7496 125.4533 223° Southwest  Level FlightAware Approximate
Wed 04:26:32 PM 33.6528 125.3434 223° Southwest  Level FlightAware Approximate
Wed 04:27:32 PM 33.5560 125.2336 223° Southwest  Level FlightAware Approximate
Wed 04:28:32 PM 33.4590 125.1241 223° Southwest  Level FlightAware Approximate
Wed 04:29:32 PM 33.3619 125.0149 223° Southwest  Level FlightAware Approximate
Wed 04:30:32 PM 33.2648 124.9059 223° Southwest  Level FlightAware Approximate
Wed 04:31:32 PM 33.1676 124.7971 223° Southwest  Level FlightAware Approximate
Wed 04:32:32 PM 33.0702 124.6886 223° Southwest  Level FlightAware Approximate
Wed 04:33:32 PM 32.9728 124.5803 223° Southwest  Level FlightAware Approximate
Wed 04:34:32 PM 32.8753 124.4723 223° Southwest  Level FlightAware Approximate
Wed 04:35:32 PM 32.7777 124.3645 223° Southwest  Level FlightAware Approximate
Wed 04:36:32 PM 32.6800 124.2569 223° Southwest  Level FlightAware Approximate
Wed 04:37:32 PM 32.5822 124.1496 223° Southwest  Level FlightAware Approximate
Wed 04:38:32 PM 32.4843 124.0425 223° Southwest  Level FlightAware Approximate
Wed 04:39:32 PM 32.3863 123.9356 223° Southwest  Level FlightAware Approximate
Wed 04:40:32 PM 32.2883 123.8290 223° Southwest  Level FlightAware Approximate
Wed 04:41:32 PM 32.1901 123.7226 222° Southwest  Level FlightAware Approximate
Wed 04:42:32 PM 32.0919 123.6164 222° Southwest  Level FlightAware Approximate
Wed 04:43:32 PM 31.9935 123.5105 222° Southwest  Level FlightAware Approximate
Wed 04:44:32 PM 31.8951 123.4047 222° Southwest  Level FlightAware Approximate
Wed 04:45:32 PM 31.7966 123.2992 222° Southwest  Level FlightAware Approximate
Wed 04:46:32 PM 31.6980 123.1940 222° Southwest  Level FlightAware Approximate
Wed 04:47:32 PM 31.5993 123.0889 222° Southwest  Level FlightAware Approximate
Wed 04:48:32 PM 31.5006 122.9841 222° Southwest  Level FlightAware Approximate
Wed 04:49:32 PM 31.4017 122.8795 222° Southwest  Level FlightAware Approximate
Wed 04:50:32 PM 31.3028 122.7751 222° Southwest  Level FlightAware Approximate
Wed 04:51:32 PM 31.2038 122.6710 222° Southwest  Level FlightAware Approximate
Wed 04:52:32 PM 31.1047 122.5670 222° Southwest  Level FlightAware Approximate
Wed 04:53:32 PM 31.0055 122.4633 222° Southwest  Level FlightAware Approximate
Wed 04:54:32 PM 30.9062 122.3598 222° Southwest  Level FlightAware Approximate
Wed 04:55:32 PM 30.8068 122.2565 222° Southwest  Level FlightAware Approximate
Wed 04:56:32 PM 30.7074 122.1534 222° Southwest  Level FlightAware Approximate
Wed 04:57:32 PM 30.6079 122.0505 222° Southwest  Level FlightAware Approximate
Wed 04:58:32 PM 30.5083 121.9479 222° Southwest  Level FlightAware Approximate
Wed 04:59:32 PM 30.4086 121.8454 222° Southwest  Level FlightAware Approximate
Wed 05:00:32 PM 30.3088 121.7432 221° Southwest  Level FlightAware Approximate
Wed 05:01:32 PM 30.2090 121.6412 221° Southwest  Level FlightAware Approximate
Wed 05:02:32 PM 30.1091 121.5393 221° Southwest  Level FlightAware Approximate
Wed 05:03:32 PM 30.0091 121.4377 221° Southwest  Level FlightAware Approximate
Wed 05:04:32 PM 29.9090 121.3363 221° Southwest  Level FlightAware Approximate
Wed 05:05:32 PM 29.8089 121.2351 221° Southwest  Level FlightAware Approximate
Wed 05:06:32 PM 29.7087 121.1341 221° Southwest  Level FlightAware Approximate
Wed 05:07:32 PM 29.6084 121.0333 221° Southwest  Level FlightAware Approximate
Wed 05:08:32 PM 29.5080 120.9327 221° Southwest  Level FlightAware Approximate
Wed 05:09:32 PM 29.4075 120.8323 221° Southwest  Level FlightAware Approximate
Wed 05:10:32 PM 29.3070 120.7320 221° Southwest  Level FlightAware Approximate
Wed 05:11:32 PM 29.2064 120.6320 221° Southwest  Level FlightAware Approximate
Wed 05:12:32 PM 29.1057 120.5322 221° Southwest  Level FlightAware Approximate
Wed 05:13:32 PM 29.0050 120.4326 221° Southwest  Level FlightAware Approximate
Wed 05:14:32 PM 28.9041 120.3332 221° Southwest  Level FlightAware Approximate
Wed 05:15:32 PM 28.8032 120.2339 221° Southwest  Level FlightAware Approximate
Wed 05:16:32 PM 28.7023 120.1349 221° Southwest  Level FlightAware Approximate
Wed 05:17:32 PM 28.6012 120.0361 221° Southwest  Level FlightAware Approximate
Wed 05:18:32 PM 28.5001 119.9374 221° Southwest  Level FlightAware Approximate
Wed 05:19:32 PM 28.3989 119.8389 221° Southwest  Level FlightAware Approximate
Wed 05:20:32 PM 28.2976 119.7406 221° Southwest  Level FlightAware Approximate
Wed 05:21:32 PM 28.1973 119.6413 221° Southwest  Level FlightAware Approximate
Wed 05:22:32 PM 28.0969 119.5420 221° Southwest  Level FlightAware Approximate
Wed 05:23:32 PM 27.9964 119.4430 221° Southwest  Level FlightAware Approximate
Wed 05:24:32 PM 27.8959 119.3442 221° Southwest  Level FlightAware Approximate
Wed 05:25:32 PM 27.7952 119.2455 221° Southwest  Level FlightAware Approximate
Wed 05:26:32 PM 27.6946 119.1471 221° Southwest  Level FlightAware Approximate
Wed 05:27:32 PM 27.5938 119.0488 221° Southwest  Level FlightAware Approximate
Wed 05:28:32 PM 27.4930 118.9507 221° Southwest  Level FlightAware Approximate
Wed 05:29:32 PM 27.3921 118.8527 221° Southwest  Level FlightAware Approximate
Wed 05:30:32 PM 27.2911 118.7550 221° Southwest  Level FlightAware Approximate
Wed 05:31:32 PM 27.1901 118.6574 221° Southwest  Level FlightAware Approximate
Wed 05:32:32 PM 27.0890 118.5600 221° Southwest  Level FlightAware Approximate
Wed 05:33:32 PM 26.9878 118.4628 221° Southwest  Level FlightAware Approximate
Wed 05:34:32 PM 26.8866 118.3658 220° Southwest  Level FlightAware Approximate
Wed 05:35:32 PM 26.7852 118.2689 220° Southwest  Level FlightAware Approximate
Wed 05:36:32 PM 26.6839 118.1722 220° Southwest  Level FlightAware Approximate
Wed 05:37:32 PM 26.5824 118.0757 220° Southwest  Level FlightAware Approximate
Wed 05:38:32 PM 26.4809 117.9793 220° Southwest  Level FlightAware Approximate
Wed 05:39:32 PM 26.3794 117.8831 220° Southwest  Level FlightAware Approximate
Wed 05:40:32 PM 26.2777 117.7871 220° Southwest  Level FlightAware Approximate
Wed 05:41:32 PM 26.1761 117.6913 220° Southwest  Level FlightAware Approximate
Wed 05:42:32 PM 26.0743 117.5956 220° Southwest  Level FlightAware Approximate
Wed 05:43:32 PM 25.9725 117.5001 220° Southwest  Level FlightAware Approximate
Wed 05:44:32 PM 25.8706 117.4047 220° Southwest  Level FlightAware Approximate
Wed 05:45:32 PM 25.7687 117.3095 220° Southwest  Level FlightAware Approximate
Wed 05:46:32 PM 25.6666 117.2145 220° Southwest  Level FlightAware Approximate
Wed 05:47:32 PM 25.5646 117.1196 220° Southwest  Level FlightAware Approximate
Wed 05:48:32 PM 25.4624 117.0249 220° Southwest  Level FlightAware Approximate
Wed 05:49:32 PM 25.3603 116.9304 220° Southwest  Level FlightAware Approximate
Wed 05:50:32 PM 25.2580 116.8360 220° Southwest  Level FlightAware Approximate
Wed 05:51:32 PM 25.1557 116.7418 220° Southwest  Level FlightAware Approximate
Wed 05:52:32 PM 25.0533 116.6477 220° Southwest  Level FlightAware Approximate
Wed 05:53:32 PM 24.9509 116.5538 220° Southwest  Level FlightAware Approximate
Wed 05:54:32 PM 24.8484 116.4601 220° Southwest  Level FlightAware Approximate
Wed 05:55:32 PM 24.7459 116.3665 220° Southwest  Level FlightAware Approximate
Wed 05:56:32 PM 24.6433 116.2730 220° Southwest  Level FlightAware Approximate
Wed 05:57:32 PM 24.5406 116.1797 220° Southwest  Level FlightAware Approximate
Wed 05:58:32 PM 24.4379 116.0866 220° Southwest  Level FlightAware Approximate
Wed 05:59:32 PM 24.3351 115.9936 219° Southwest  Level FlightAware Approximate
Wed 06:00:32 PM 24.2323 115.9008 219° Southwest  Level FlightAware Approximate
Wed 06:01:32 PM 24.1294 115.8081 219° Southwest  Level FlightAware Approximate
Wed 06:02:32 PM 24.0264 115.7156 219° Southwest  Level FlightAware Approximate
Wed 06:03:32 PM 23.9234 115.6232 195° South  Level FlightAware Approximate
Wed 06:04:32 PM 23.8064 115.5897 221° Southwest  Level FlightAware Approximate
Wed 06:05:32 PM 23.7062 115.4939 221° Southwest  Level FlightAware Approximate
Wed 06:06:32 PM 23.6053 115.3990 219° Southwest  Level FlightAware Approximate
Wed 06:07:32 PM 23.5020 115.3076 221° Southwest  Level FlightAware Approximate
Wed 06:08:32 PM 23.4012 115.2128 220° Southwest  Level FlightAware Approximate
Wed 06:09:32 PM 23.2990 115.1198 221° Southwest  Level FlightAware Approximate
Wed 06:10:32 PM 23.1982 115.0250 221° Southwest  Level FlightAware Approximate
Wed 06:11:32 PM 23.0973 114.9306 221° Southwest  Level FlightAware Approximate
Wed 06:12:32 PM 22.9965 114.8361 224° Southwest  Level FlightAware Approximate
Wed 06:13:32 PM 22.9006 114.7359 220° Southwest  Level FlightAware Approximate
Wed 06:14:32 PM 22.7987 114.6428 221° Southwest  Level FlightAware Approximate
Wed 06:15:32 PM 22.7025 114.5524 223° Southwest  Level FlightAware Approximate
Wed 06:16:32 PM 22.6086 114.4585 218° Southwest  Level FlightAware Approximate
Wed 06:17:32 PM 22.5080 114.3733 217° Southwest  Level FlightAware Approximate
Wed 06:18:32 PM 22.4065 114.2898 223° Southwest  Level FlightAware Approximate
Wed 06:19:32 PM 22.3167 114.2000 268° West  Level FlightAware Approximate
Wed 06:20:32 PM 22.3130 114.0620 47° Northeast  Level Estimated
Wed 06:21:32 PM 22.8717 114.7106 220° Southwest  Level FlightAware Approximate
Wed 06:22:32 PM 22.7740 114.6212 220° Southwest  Level FlightAware Approximate
Wed 06:23:32 PM 22.6764 114.5319 220° Southwest  Level FlightAware Approximate
Wed 06:24:32 PM 22.5786 114.4428 220° Southwest  Level FlightAware Approximate
Wed 06:25:32 PM 22.4809 114.3538 220° Southwest  Level FlightAware Approximate
Wed 06:26:32 PM 22.3831 114.2649 222° Southwest  Level FlightAware Approximate
Wed 06:27:32 PM 22.3167 114.2000 268° West  Level FlightAware Approximate
Wed 06:28:32 PM 22.3130 114.0620 268° West  Level Estimated
Wed 06:29:32 PM 22.3092 113.9240 268° West  Level Estimated
Wed 06:30:32 PM 22.3053 113.7859 88° East  Level Estimated
Wed 06:31:32 PM 22.3092 113.9240 88° East  Level Estimated
Wed 06:32:32 PM 22.3167 114.2000 268° West  Level FlightAware Approximate
Wed 06:33:32 PM 22.3130 114.0620 88° East  Level Estimated
Wed 06:34:32 PM 22.3167 114.2000 268° West  Level FlightAware Approximate
Wed 06:35:32 PM 22.3130 114.0620 88° East  Level Estimated
Wed 06:36:32 PM 22.3167 114.2000 268° West  Level FlightAware Approximate
Wed 06:37:32 PM 22.3130 114.0620 88° East  Level Estimated
Wed 06:38:32 PM 22.3167 114.2000 268° West  Level FlightAware Approximate
Wed 06:39:32 PM 22.3130 114.0620 88° East  Level Estimated
Wed 06:40:32 PM 22.3167 114.2000 268° West  Level FlightAware Approximate
Wed 06:41:32 PM 22.3130 114.0620 88° East  Level Estimated
Wed 06:42:32 PM 22.3167 114.2000 268° West  Level FlightAware Approximate
Wed 06:43:32 PM 22.3130 114.0620 88° East  Level Estimated
Wed 06:44:32 PM 22.3167 114.2000 268° West  Level FlightAware Approximate
Wed 06:45:32 PM 22.3130 114.0620 88° East  Level Estimated
Wed 06:46:32 PM 22.3167 114.2000 268° West  Level FlightAware Approximate
Wed 06:47:32 PM 22.3130 114.0636 88° East  Level Estimated
Wed 06:48:32 PM 22.3167 114.2000 268° West  Level FlightAware Approximate
Wed 06:49:32 PM 22.3130 114.0636 88° East  Level Estimated
Wed 06:50:32 PM 22.3167 114.2000 268° West  Level FlightAware Approximate
Wed 06:51:32 PM 22.3130 114.0636 88° East  Level Estimated
Wed 06:52:32 PM 22.3167 114.2000 268° West  Level FlightAware Approximate
Wed 06:53:32 PM 22.3130 114.0636 88° East  Level Estimated
Wed 06:54:32 PM 22.3167 114.2000 268° West  Level FlightAware Approximate
Wed 06:55:32 PM 22.3131 114.0652 88° East  Level Estimated
Wed 06:56:32 PM 22.3167 114.2000 268° West  Level FlightAware Approximate
Wed 06:57:32 PM 22.3131 114.0652 88° East  Level Estimated
Wed 06:58:32 PM 22.3167 114.2000 268° West  Level FlightAware Approximate
Wed 06:59:32 PM 22.3131 114.0652 88° East  Level Estimated
Wed 07:00:32 PM 22.3167 114.2000 268° West  Level FlightAware Approximate
Wed 07:01:32 PM 22.3131 114.0652 88° East  Level Estimated
Wed 07:02:32 PM 22.3167 114.2000 268° West  Level FlightAware Approximate
Wed 07:03:32 PM 22.3131 114.0652 88° East  Level Estimated
Wed 07:04:32 PM 22.3167 114.2000 268° West  Level FlightAware Approximate
Wed 07:05:32 PM 22.3131 114.0652 88° East  Level Estimated
Wed 07:06:32 PM 22.3167 114.2000 268° West  Level FlightAware Approximate
Wed 07:07:32 PM 22.3131 114.0652 88° East  Level Estimated
Wed 07:08:32 PM 22.3167 114.2000 88° East  Level FlightAware Approximate

Login

Don't have an account? Register now (free) for customized features, flight alerts, and more!